Time,TemperatureF,DewpointF,PressureIn,WindDirection,WindDirectionDegrees,WindSpeedMPH,WindSpeedGustMPH,Humidity,HourlyPrecipIn,Conditions,Clouds,dailyrainin,SoftwareType,DateUTC
2013-07-07 00:03:00,58.8,52.7,29.73,WSW,247,2.0,2.0,80,0.00,,,0.00,WUHU21623XXSP,2013-07-07 07:03:00,
2013-07-07 00:08:00,58.8,53.0,29.73,South,180,0.0,2.0,81,0.00,,,0.00,WUHU21623XXSP,2013-07-07 07:08:00,
2013-07-07 00:13:00,59.0,53.3,29.73,SSE,157,1.6,1.6,81,0.00,,,0.00,WUHU21623XXSP,2013-07-07 07:13:00,
2013-07-07 00:18:00,58.8,53.0,29.73,SSE,157,0.0,1.6,81,0.00,,,0.00,WUHU21623XXSP,2013-07-07 07:18:00,
2013-07-07 00:23:00,59.0,53.5,29.74,SSE,157,0.0,0.9,82,0.00,,,0.00,WUHU21623XXSP,2013-07-07 07:23:00,
2013-07-07 00:28:00,59.0,53.5,29.73,West,270,0.0,1.3,82,0.00,,,0.00,WUHU21623XXSP,2013-07-07 07:28:00,
2013-07-07 00:33:00,59.0,53.5,29.74,South,180,1.1,1.3,82,0.00,,,0.00,WUHU21623XXSP,2013-07-07 07:33:00,
2013-07-07 00:38:00,58.8,53.7,29.74,South,180,0.0,2.2,83,0.00,,,0.00,WUHU21623XXSP,2013-07-07 07:38:00,
2013-07-07 00:43:00,58.8,53.7,29.73,South,180,0.9,2.9,83,0.00,,,0.00,WUHU21623XXSP,2013-07-07 07:43:00,
2013-07-07 00:48:00,58.8,54.3,29.74,SSE,157,0.0,2.9,85,0.00,,,0.00,WUHU21623XXSP,2013-07-07 07:48:00,
2013-07-07 00:53:00,58.8,54.3,29.73,South,180,0.0,0.0,85,0.00,,,0.00,WUHU21623XXSP,2013-07-07 07:53:00,
2013-07-07 00:58:00,58.8,54.0,29.74,West,270,0.0,0.0,83,0.00,,,0.00,WUHU21623XXSP,2013-07-07 07:58:00,
2013-07-07 01:03:00,58.8,53.7,29.74,West,270,0.0,0.0,83,0.00,,,0.00,WUHU21623XXSP,2013-07-07 08:03:00,
2013-07-07 01:15:00,58.8,54.3,29.74,ESE,112,0.0,0.0,85,0.00,,,0.00,WUHU21623XXSP,2013-07-07 08:15:00,
2013-07-07 01:20:00,58.8,54.3,29.74,SE,135,0.0,1.1,85,0.00,,,0.00,WUHU21623XXSP,2013-07-07 08:20:00,
2013-07-07 01:25:00,58.6,54.8,29.74,South,180,0.0,1.1,87,0.00,,,0.00,WUHU21623XXSP,2013-07-07 08:25:00,
2013-07-07 01:30:00,58.6,55.1,29.73,East,90,0.0,0.0,88,0.00,,,0.00,WUHU21623XXSP,2013-07-07 08:30:00,
2013-07-07 01:35:00,58.6,55.1,29.74,SSE,157,0.0,0.0,88,0.00,,,0.00,WUHU21623XXSP,2013-07-07 08:35:00,
2013-07-07 01:40:00,58.6,54.5,29.73,South,180,0.0,2.5,86,0.00,,,0.00,WUHU21623XXSP,2013-07-07 08:40:00,
2013-07-07 01:45:00,58.6,55.1,29.74,South,180,0.7,2.5,88,0.00,,,0.00,WUHU21623XXSP,2013-07-07 08:45:00,
2013-07-07 01:50:00,58.6,55.1,29.74,South,180,2.5,2.5,86,0.00,,,0.00,WUHU21623XXSP,2013-07-07 08:50:00,
2013-07-07 01:55:00,58.6,54.8,29.74,SSW,202,0.0,2.5,87,0.00,,,0.00,WUHU21623XXSP,2013-07-07 08:55:00,
2013-07-07 02:00:00,58.6,54.8,29.74,WNW,292,0.0,0.0,87,0.00,,,0.00,WUHU21623XXSP,2013-07-07 09:00:00,
2013-07-07 02:05:00,58.6,54.8,29.74,WNW,292,0.0,0.0,87,0.00,,,0.00,WUHU21623XXSP,2013-07-07 09:05:00,
2013-07-07 02:13:00,58.5,55.3,29.74,West,270,0.0,0.0,89,0.00,,,0.00,WUHU21623XXSP,2013-07-07 09:13:00,
2013-07-07 02:18:00,58.6,55.1,29.74,SSE,157,0.0,0.0,88,0.00,,,0.00,WUHU21623XXSP,2013-07-07 09:18:00,
2013-07-07 02:23:00,58.5,55.3,29.74,WNW,292,0.9,1.6,89,0.00,,,0.00,WUHU21623XXSP,2013-07-07 09:23:00,
2013-07-07 02:28:00,58.6,55.1,29.74,WSW,247,0.0,1.6,88,0.00,,,0.00,WUHU21623XXSP,2013-07-07 09:28:00,
2013-07-07 02:33:00,58.6,55.1,29.74,WSW,247,0.0,1.1,88,0.00,,,0.00,WUHU21623XXSP,2013-07-07 09:33:00,
2013-07-07 02:38:00,58.3,55.7,29.74,West,270,0.0,3.6,91,0.00,,,0.00,WUHU21623XXSP,2013-07-07 09:38:00,
2013-07-07 02:43:00,58.3,55.1,29.74,NW,315,1.3,3.6,89,0.00,,,0.00,WUHU21623XXSP,2013-07-07 09:43:00,
2013-07-07 02:48:00,57.9,55.6,29.74,WNW,292,0.9,1.3,92,0.00,,,0.00,WUHU21623XXSP,2013-07-07 09:48:00,
2013-07-07 02:53:00,58.1,55.2,29.74,West,270,0.0,1.6,90,0.00,,,0.00,WUHU21623XXSP,2013-07-07 09:53:00,
2013-07-07 02:58:00,58.1,55.2,29.74,SE,135,0.0,1.6,90,0.00,,,0.00,WUHU21623XXSP,2013-07-07 09:58:00,
2013-07-07 03:03:00,58.1,55.8,29.74,SSW,202,1.8,1.8,92,0.00,,,0.00,WUHU21623XXSP,2013-07-07 10:03:00,
2013-07-07 03:08:00,58.1,55.8,29.74,SE,135,0.0,1.8,92,0.00,,,0.00,WUHU21623XXSP,2013-07-07 10:08:00,
2013-07-07 03:13:00,58.1,56.1,29.74,South,180,0.0,1.1,93,0.00,,,0.00,WUHU21623XXSP,2013-07-07 10:13:00,
2013-07-07 03:18:00,57.9,55.9,29.74,South,180,0.0,1.1,93,0.00,,,0.00,WUHU21623XXSP,2013-07-07 10:18:00,
2013-07-07 03:23:00,57.9,55.9,29.75,WNW,292,1.3,1.3,93,0.00,,,0.00,WUHU21623XXSP,2013-07-07 10:23:00,
2013-07-07 03:28:00,57.9,55.9,29.75,WNW,292,0.0,1.3,93,0.00,,,0.00,WUHU21623XXSP,2013-07-07 10:28:00,
2013-07-07 03:33:00,57.9,55.6,29.74,SW,225,2.9,2.9,92,0.00,,,0.00,WUHU21623XXSP,2013-07-07 10:33:00,
2013-07-07 03:38:00,57.9,56.2,29.74,WNW,292,1.3,2.9,94,0.00,,,0.00,WUHU21623XXSP,2013-07-07 10:38:00,
2013-07-07 03:43:00,57.9,55.6,29.74,WNW,292,1.6,1.6,92,0.00,,,0.00,WUHU21623XXSP,2013-07-07 10:43:00,
2013-07-07 03:48:00,57.9,55.9,29.74,WSW,247,0.0,1.6,93,0.00,,,0.00,WUHU21623XXSP,2013-07-07 10:48:00,
2013-07-07 03:53:00,57.7,55.7,29.74,NW,315,0.9,0.9,93,0.00,,,0.00,WUHU21623XXSP,2013-07-07 10:53:00,
2013-07-07 03:58:00,57.7,56.0,29.74,NW,315,0.0,0.9,94,0.00,,,0.00,WUHU21623XXSP,2013-07-07 10:58:00,
2013-07-07 04:03:00,57.7,56.0,29.74,SE,135,0.0,0.0,94,0.00,,,0.00,WUHU21623XXSP,2013-07-07 11:03:00,
2013-07-07 04:08:00,57.7,56.3,29.74,WSW,247,0.0,0.0,95,0.00,,,0.00,WUHU21623XXSP,2013-07-07 11:08:00,
2013-07-07 04:13:00,57.7,56.6,29.74,SE,135,0.0,0.0,96,0.00,,,0.00,WUHU21623XXSP,2013-07-07 11:13:00,
2013-07-07 04:23:00,57.7,56.3,29.75,South,180,0.0,3.1,95,0.00,,,0.00,WUHU21623XXSP,2013-07-07 11:23:00,
2013-07-07 04:28:00,57.7,56.9,29.75,SSE,157,0.0,3.1,97,0.00,,,0.00,WUHU21623XXSP,2013-07-07 11:28:00,
2013-07-07 04:33:00,57.7,56.9,29.74,WNW,292,0.0,0.9,97,0.00,,,0.00,WUHU21623XXSP,2013-07-07 11:33:00,
2013-07-07 04:43:00,57.7,56.9,29.75,WSW,247,0.0,0.9,97,0.00,,,0.00,WUHU21623XXSP,2013-07-07 11:43:00,
2013-07-07 04:48:00,57.7,57.2,29.75,South,180,0.0,0.9,98,0.00,,,0.00,WUHU21623XXSP,2013-07-07 11:48:00,
2013-07-07 04:53:00,57.7,57.2,29.75,West,270,0.7,1.6,98,0.00,,,0.00,WUHU21623XXSP,2013-07-07 11:53:00,
2013-07-07 04:58:00,57.7,56.6,29.75,WSW,247,0.0,1.6,96,0.00,,,0.00,WUHU21623XXSP,2013-07-07 11:58:00,
2013-07-07 05:03:00,57.6,56.7,29.75,West,270,0.0,0.9,97,0.00,,,0.00,WUHU21623XXSP,2013-07-07 12:03:00,
2013-07-07 05:08:00,57.6,56.4,29.75,WNW,292,0.0,1.8,96,0.00,,,0.00,WUHU21623XXSP,2013-07-07 12:08:00,
2013-07-07 05:13:00,57.4,57.1,29.75,NW,315,1.6,1.8,99,0.00,,,0.00,WUHU21623XXSP,2013-07-07 12:13:00,
2013-07-07 05:18:00,57.4,56.5,29.75,West,270,0.0,1.6,97,0.00,,,0.00,WUHU21623XXSP,2013-07-07 12:18:00,
2013-07-07 05:23:00,57.4,56.5,29.75,WNW,292,0.0,0.9,97,0.00,,,0.00,WUHU21623XXSP,2013-07-07 12:23:00,
2013-07-07 05:28:00,57.4,56.5,29.75,WNW,292,0.0,0.7,97,0.00,,,0.00,WUHU21623XXSP,2013-07-07 12:28:00,
2013-07-07 05:33:00,57.4,56.5,29.75,South,180,0.0,1.1,97,0.00,,,0.00,WUHU21623XXSP,2013-07-07 12:33:00,
2013-07-07 05:38:00,57.4,57.1,29.75,SE,135,0.0,2.0,99,0.00,,,0.00,WUHU21623XXSP,2013-07-07 12:38:00,
2013-07-07 05:43:00,57.0,56.2,29.75,NNW,337,0.0,2.0,97,0.00,,,0.00,WUHU21623XXSP,2013-07-07 12:43:00,
2013-07-07 05:48:00,56.8,56.0,29.75,North,0,0.0,0.0,97,0.00,,,0.00,WUHU21623XXSP,2013-07-07 12:48:00,
2013-07-07 05:53:00,56.8,56.0,29.76,WSW,247,0.0,0.9,97,0.00,,,0.00,WUHU21623XXSP,2013-07-07 12:53:00,
2013-07-07 05:58:00,56.8,56.0,29.76,South,180,0.0,0.9,97,0.00,,,0.00,WUHU21623XXSP,2013-07-07 12:58:00,
2013-07-07 06:03:00,57.0,56.2,29.76,SE,135,0.0,0.0,97,0.00,,,0.00,WUHU21623XXSP,2013-07-07 13:03:00,
2013-07-07 06:08:00,57.0,56.2,29.76,South,180,0.0,0.0,97,0.00,,,0.00,WUHU21623XXSP,2013-07-07 13:08:00,
2013-07-07 06:13:00,57.0,56.2,29.76,NNW,337,0.0,0.0,97,0.00,,,0.00,WUHU21623XXSP,2013-07-07 13:13:00,
2013-07-07 06:18:00,56.8,56.0,29.76,NW,315,0.0,0.0,97,0.00,,,0.00,WUHU21623XXSP,2013-07-07 13:18:00,
2013-07-07 06:23:00,56.8,56.0,29.77,NW,315,0.0,0.0,97,0.00,,,0.00,WUHU21623XXSP,2013-07-07 13:23:00,
2013-07-07 06:28:00,56.8,56.3,29.77,NW,315,0.0,0.0,98,0.00,,,0.00,WUHU21623XXSP,2013-07-07 13:28:00,
2013-07-07 06:33:00,57.0,56.4,29.77,SSW,202,0.0,0.0,98,0.00,,,0.00,WUHU21623XXSP,2013-07-07 13:33:00,
2013-07-07 06:38:00,57.0,56.2,29.77,SSW,202,0.0,0.0,97,0.00,,,0.00,WUHU21623XXSP,2013-07-07 13:38:00,
2013-07-07 06:43:00,57.0,56.4,29.77,WNW,292,1.1,1.1,98,0.00,,,0.00,WUHU21623XXSP,2013-07-07 13:43:00,
2013-07-07 06:48:00,57.0,56.2,29.76,WSW,247,0.0,1.1,97,0.00,,,0.00,WUHU21623XXSP,2013-07-07 13:48:00,
2013-07-07 06:53:00,57.0,56.2,29.76,West,270,0.0,0.0,97,0.00,,,0.00,WUHU21623XXSP,2013-07-07 13:53:00,
2013-07-07 06:58:00,57.2,56.3,29.77,SSE,157,0.0,0.0,97,0.00,,,0.00,WUHU21623XXSP,2013-07-07 13:58:00,
2013-07-07 07:03:00,57.4,56.5,29.77,WSW,247,0.0,0.0,97,0.00,,,0.00,WUHU21623XXSP,2013-07-07 14:03:00,
2013-07-07 07:08:00,57.4,56.5,29.77,SSW,202,0.0,0.0,97,0.00,,,0.00,WUHU21623XXSP,2013-07-07 14:08:00,
2013-07-07 07:13:00,57.4,56.5,29.78,WNW,292,1.3,1.3,97,0.00,,,0.00,WUHU21623XXSP,2013-07-07 14:13:00,
2013-07-07 07:18:00,57.4,56.5,29.77,NW,315,1.8,1.8,97,0.00,,,0.00,WUHU21623XXSP,2013-07-07 14:18:00,
2013-07-07 07:23:00,57.4,56.5,29.77,West,270,0.9,1.8,97,0.00,,,0.00,WUHU21623XXSP,2013-07-07 14:23:00,
2013-07-07 07:28:00,57.4,56.5,29.78,WNW,292,0.0,1.3,97,0.00,,,0.00,WUHU21623XXSP,2013-07-07 14:28:00,
2013-07-07 07:33:00,57.4,56.5,29.78,SSW,202,0.0,1.1,97,0.00,,,0.00,WUHU21623XXSP,2013-07-07 14:33:00,
2013-07-07 07:38:00,57.6,56.7,29.78,SSW,202,1.6,1.6,97,0.00,,,0.00,WUHU21623XXSP,2013-07-07 14:38:00,
2013-07-07 07:43:00,57.6,56.4,29.78,South,180,0.0,1.6,96,0.00,,,0.00,WUHU21623XXSP,2013-07-07 14:43:00,
2013-07-07 07:48:00,57.7,56.6,29.78,WSW,247,0.9,1.1,96,0.00,,,0.00,WUHU21623XXSP,2013-07-07 14:48:00,
2013-07-07 07:53:00,57.7,56.6,29.78,WSW,247,2.0,2.0,96,0.00,,,0.00,WUHU21623XXSP,2013-07-07 14:53:00,
2013-07-07 07:58:00,57.7,56.6,29.78,SW,225,0.0,2.0,96,0.00,,,0.00,WUHU21623XXSP,2013-07-07 14:58:00,
2013-07-07 08:03:00,57.7,56.6,29.78,SSE,157,1.8,1.8,96,0.00,,,0.00,WUHU21623XXSP,2013-07-07 15:03:00,
2013-07-07 08:08:00,57.7,56.6,29.78,South,180,2.0,2.2,96,0.00,,,0.00,WUHU21623XXSP,2013-07-07 15:08:00,
2013-07-07 08:13:00,57.9,56.8,29.78,ESE,112,0.0,2.2,96,0.00,,,0.00,WUHU21623XXSP,2013-07-07 15:13:00,
2013-07-07 08:18:00,57.9,56.8,29.78,ESE,112,0.0,1.3,96,0.00,,,0.00,WUHU21623XXSP,2013-07-07 15:18:00,
2013-07-07 08:23:00,57.9,56.8,29.78,South,180,0.0,0.0,96,0.00,,,0.00,WUHU21623XXSP,2013-07-07 15:23:00,
2013-07-07 08:28:00,57.9,56.8,29.78,SW,225,0.0,0.0,96,0.00,,,0.00,WUHU21623XXSP,2013-07-07 15:28:00,
2013-07-07 08:33:00,58.1,56.9,29.79,South,180,0.0,1.1,96,0.00,,,0.00,WUHU21623XXSP,2013-07-07 15:33:00,
2013-07-07 08:38:00,58.1,56.9,29.79,SSW,202,1.3,1.3,96,0.00,,,0.00,WUHU21623XXSP,2013-07-07 15:38:00,
2013-07-07 08:43:00,58.1,56.9,29.79,SSE,157,0.0,1.3,96,0.00,,,0.00,WUHU21623XXSP,2013-07-07 15:43:00,
2013-07-07 08:53:00,58.1,56.7,29.79,SSE,157,0.0,0.0,95,0.00,,,0.00,WUHU21623XXSP,2013-07-07 15:53:00,
2013-07-07 08:58:00,58.3,56.8,29.80,WNW,292,2.0,2.0,95,0.00,,,0.00,WUHU21623XXSP,2013-07-07 15:58:00,
2013-07-07 09:03:00,58.3,56.8,29.80,WSW,247,2.2,2.2,95,0.00,,,0.00,WUHU21623XXSP,2013-07-07 16:03:00,
2013-07-07 09:08:00,58.3,56.6,29.80,WSW,247,1.3,2.2,94,0.00,,,0.00,WUHU21623XXSP,2013-07-07 16:08:00,
2013-07-07 09:13:00,58.5,56.7,29.80,South,180,3.1,3.1,94,0.00,,,0.00,WUHU21623XXSP,2013-07-07 16:13:00,
2013-07-07 09:18:00,58.6,56.9,29.80,SW,225,0.0,3.1,94,0.00,,,0.00,WUHU21623XXSP,2013-07-07 16:18:00,
2013-07-07 09:23:00,58.8,56.9,29.80,North,0,0.0,0.9,94,0.00,,,0.00,WUHU21623XXSP,2013-07-07 16:23:00,
2013-07-07 09:28:00,58.6,56.6,29.80,WNW,292,0.9,0.9,93,0.00,,,0.00,WUHU21623XXSP,2013-07-07 16:28:00,
2013-07-07 09:33:00,58.8,56.8,29.80,SW,225,0.9,0.9,93,0.00,,,0.00,WUHU21623XXSP,2013-07-07 16:33:00,
2013-07-07 09:38:00,58.8,56.5,29.80,WNW,292,0.0,2.2,92,0.00,,,0.00,WUHU21623XXSP,2013-07-07 16:38:00,
2013-07-07 09:43:00,59.0,56.7,29.80,WNW,292,0.0,2.2,92,0.00,,,0.00,WUHU21623XXSP,2013-07-07 16:43:00,
2013-07-07 09:48:00,59.2,56.9,29.79,SSE,157,2.0,2.0,92,0.00,,,0.00,WUHU21623XXSP,2013-07-07 16:48:00,
2013-07-07 09:53:00,59.4,56.8,29.80,ESE,112,0.0,2.0,91,0.00,,,0.00,WUHU21623XXSP,2013-07-07 16:53:00,
2013-07-07 09:58:00,59.4,56.5,29.80,NNW,337,0.0,0.0,90,0.00,,,0.00,WUHU21623XXSP,2013-07-07 16:58:00,
2013-07-07 10:03:00,59.5,56.7,29.80,WNW,292,0.7,0.7,90,0.00,,,0.00,WUHU21623XXSP,2013-07-07 17:03:00,
2013-07-07 10:08:00,59.7,56.8,29.79,WNW,292,0.0,0.7,90,0.00,,,0.00,WUHU21623XXSP,2013-07-07 17:08:00,
2013-07-07 10:13:00,59.5,56.7,29.79,NNW,337,1.6,1.6,90,0.00,,,0.00,WUHU21623XXSP,2013-07-07 17:13:00,
2013-07-07 10:18:00,59.9,57.0,29.80,WNW,292,1.3,1.6,90,0.00,,,0.00,WUHU21623XXSP,2013-07-07 17:18:00,
2013-07-07 10:23:00,60.1,56.7,29.80,SW,225,3.4,3.4,89,0.00,,,0.00,WUHU21623XXSP,2013-07-07 17:23:00,
2013-07-07 10:28:00,60.4,56.9,29.79,SSW,202,0.0,3.4,88,0.00,,,0.00,WUHU21623XXSP,2013-07-07 17:28:00,
2013-07-07 10:34:00,60.4,56.9,29.79,West,270,0.0,2.2,88,0.00,,,0.00,WUHU21623XXSP,2013-07-07 17:34:00,
2013-07-07 10:39:00,60.6,56.8,29.80,West,270,0.0,0.0,87,0.00,,,0.00,WUHU21623XXSP,2013-07-07 17:39:00,
2013-07-07 10:44:00,61.0,56.8,29.79,WNW,292,0.0,2.2,86,0.00,,,0.00,WUHU21623XXSP,2013-07-07 17:44:00,
2013-07-07 10:49:00,61.2,56.6,29.79,NW,315,1.6,2.2,85,0.00,,,0.00,WUHU21623XXSP,2013-07-07 17:49:00,
2013-07-07 10:54:00,61.5,57.0,29.79,South,180,2.0,2.0,85,0.00,,,0.00,WUHU21623XXSP,2013-07-07 17:54:00,
2013-07-07 10:59:00,61.9,57.0,29.79,SE,135,3.6,3.6,84,0.00,,,0.00,WUHU21623XXSP,2013-07-07 17:59:00,
2013-07-07 11:04:00,62.2,57.0,29.79,North,0,0.7,3.6,83,0.00,,,0.00,WUHU21623XXSP,2013-07-07 18:04:00,
2013-07-07 11:09:00,62.4,56.8,29.79,SE,135,0.0,3.6,82,0.00,,,0.00,WUHU21623XXSP,2013-07-07 18:09:00,
2013-07-07 11:14:00,62.8,56.8,29.79,SE,135,0.0,2.2,81,0.00,,,0.00,WUHU21623XXSP,2013-07-07 18:14:00,
2013-07-07 11:19:00,63.1,56.8,29.79,SSW,202,0.0,2.2,80,0.00,,,0.00,WUHU21623XXSP,2013-07-07 18:19:00,
2013-07-07 11:24:00,63.3,56.5,29.79,North,0,0.0,0.0,78,0.00,,,0.00,WUHU21623XXSP,2013-07-07 18:24:00,
2013-07-07 11:29:00,63.7,56.3,29.79,WSW,247,0.7,4.9,77,0.00,,,0.00,WUHU21623XXSP,2013-07-07 18:29:00,
2013-07-07 11:34:00,64.0,56.7,29.78,South,180,2.7,4.9,77,0.00,,,0.00,WUHU21623XXSP,2013-07-07 18:34:00,
2013-07-07 11:39:00,64.2,56.5,29.78,WNW,292,0.9,2.7,76,0.00,,,0.00,WUHU21623XXSP,2013-07-07 18:39:00,
2013-07-07 11:44:00,64.8,56.5,29.79,NNE,22,0.0,1.8,74,0.00,,,0.00,WUHU21623XXSP,2013-07-07 18:44:00,
2013-07-07 11:49:00,64.9,56.4,29.78,West,270,1.6,1.6,74,0.00,,,0.00,WUHU21623XXSP,2013-07-07 18:49:00,
2013-07-07 11:54:00,65.3,56.0,29.78,SSE,157,1.8,2.0,72,0.00,,,0.00,WUHU21623XXSP,2013-07-07 18:54:00,
2013-07-07 11:59:00,66.0,56.3,29.78,SSW,202,0.9,2.0,71,0.00,,,0.00,WUHU21623XXSP,2013-07-07 18:59:00,
2013-07-07 12:04:00,66.4,55.9,29.78,South,180,2.0,2.9,69,0.00,,,0.00,WUHU21623XXSP,2013-07-07 19:04:00,
2013-07-07 12:09:00,66.7,55.8,29.78,SW,225,0.0,2.9,68,0.00,,,0.00,WUHU21623XXSP,2013-07-07 19:09:00,
2013-07-07 12:14:00,67.3,55.9,29.78,WSW,247,0.0,2.0,67,0.00,,,0.00,WUHU21623XXSP,2013-07-07 19:14:00,
2013-07-07 12:19:00,67.6,55.8,29.78,SW,225,4.5,4.5,66,0.00,,,0.00,WUHU21623XXSP,2013-07-07 19:19:00,
2013-07-07 12:24:00,67.8,55.1,29.78,West,270,2.5,4.5,64,0.00,,,0.00,WUHU21623XXSP,2013-07-07 19:24:00,
2013-07-07 12:29:00,68.5,55.8,29.78,West,270,0.7,2.5,64,0.00,,,0.00,WUHU21623XXSP,2013-07-07 19:29:00,
2013-07-07 12:34:00,68.9,56.2,29.77,SW,225,0.0,2.0,64,0.00,,,0.00,WUHU21623XXSP,2013-07-07 19:34:00,
2013-07-07 12:39:00,69.4,55.9,29.78,SSE,157,3.1,3.1,63,0.00,,,0.00,WUHU21623XXSP,2013-07-07 19:39:00,
2013-07-07 12:44:00,70.0,56.0,29.78,South,180,1.8,3.1,61,0.00,,,0.00,WUHU21623XXSP,2013-07-07 19:44:00,
2013-07-07 12:49:00,70.3,56.1,29.77,SE,135,0.9,1.8,60,0.00,,,0.00,WUHU21623XXSP,2013-07-07 19:49:00,
2013-07-07 12:54:00,70.3,56.3,29.77,SW,225,1.6,1.6,61,0.00,,,0.00,WUHU21623XXSP,2013-07-07 19:54:00,
2013-07-07 12:59:00,70.9,56.2,29.77,WSW,247,4.0,4.0,60,0.00,,,0.00,WUHU21623XXSP,2013-07-07 19:59:00,
2013-07-07 13:04:00,71.4,56.4,29.77,WNW,292,0.0,4.0,59,0.00,,,0.00,WUHU21623XXSP,2013-07-07 20:04:00,
2013-07-07 13:09:00,71.8,56.2,29.77,NE,45,0.0,3.1,58,0.00,,,0.00,WUHU21623XXSP,2013-07-07 20:09:00,
2013-07-07 13:14:00,72.3,56.2,29.76,South,180,4.3,4.3,57,0.00,,,0.00,WUHU21623XXSP,2013-07-07 20:14:00,
2013-07-07 13:19:00,72.7,56.5,29.76,WSW,247,4.0,4.3,57,0.00,,,0.00,WUHU21623XXSP,2013-07-07 20:19:00,
2013-07-07 13:24:00,73.0,56.6,29.76,NNW,337,6.0,6.0,56,0.00,,,0.00,WUHU21623XXSP,2013-07-07 20:24:00,
2013-07-07 13:29:00,73.6,56.3,29.76,West,270,2.0,6.0,55,0.00,,,0.00,WUHU21623XXSP,2013-07-07 20:29:00,
2013-07-07 13:34:00,73.9,56.7,29.76,ESE,112,1.1,4.7,55,0.00,,,0.00,WUHU21623XXSP,2013-07-07 20:34:00,
2013-07-07 13:39:00,74.3,56.5,29.75,West,270,2.9,2.9,54,0.00,,,0.00,WUHU21623XXSP,2013-07-07 20:39:00,
2013-07-07 13:44:00,74.7,56.4,29.76,WSW,247,0.0,2.9,53,0.00,,,0.00,WUHU21623XXSP,2013-07-07 20:44:00,
2013-07-07 13:49:00,75.0,56.7,29.75,West,270,0.0,2.9,53,0.00,,,0.00,WUHU21623XXSP,2013-07-07 20:49:00,
2013-07-07 13:54:00,75.2,56.4,29.75,SSE,157,5.1,5.1,52,0.00,,,0.00,WUHU21623XXSP,2013-07-07 20:54:00,
2013-07-07 13:59:00,75.7,56.4,29.75,NE,45,0.0,5.1,51,0.00,,,0.00,WUHU21623XXSP,2013-07-07 20:59:00,
2013-07-07 14:04:00,76.1,56.6,29.75,SSW,202,1.8,1.8,50,0.00,,,0.00,WUHU21623XXSP,2013-07-07 21:04:00,
2013-07-07 14:09:00,76.6,57.2,29.75,WSW,247,1.6,1.8,51,0.00,,,0.00,WUHU21623XXSP,2013-07-07 21:09:00,
2013-07-07 14:14:00,76.6,56.7,29.75,South,180,6.0,6.0,50,0.00,,,0.00,WUHU21623XXSP,2013-07-07 21:14:00,
2013-07-07 14:19:00,76.8,55.6,29.75,South,180,1.6,6.0,48,0.00,,,0.00,WUHU21623XXSP,2013-07-07 21:19:00,
2013-07-07 14:24:00,76.8,56.2,29.75,SW,225,0.9,1.6,49,0.00,,,0.00,WUHU21623XXSP,2013-07-07 21:24:00,
2013-07-07 14:29:00,76.8,55.6,29.75,WSW,247,1.3,4.7,48,0.00,,,0.00,WUHU21623XXSP,2013-07-07 21:29:00,
2013-07-07 14:34:00,76.6,55.5,29.75,West,270,2.0,4.7,48,0.00,,,0.00,WUHU21623XXSP,2013-07-07 21:34:00,
2013-07-07 14:39:00,76.6,55.5,29.75,SW,225,7.6,7.6,49,0.00,,,0.00,WUHU21623XXSP,2013-07-07 21:39:00,
2013-07-07 14:44:00,76.6,55.5,29.75,SSW,202,0.9,7.6,48,0.00,,,0.00,WUHU21623XXSP,2013-07-07 21:44:00,
2013-07-07 14:49:00,76.8,55.6,29.75,SSE,157,4.3,7.6,48,0.00,,,0.00,WUHU21623XXSP,2013-07-07 21:49:00,
2013-07-07 14:54:00,76.8,55.6,29.75,SE,135,4.3,6.5,48,0.00,,,0.00,WUHU21623XXSP,2013-07-07 21:54:00,
2013-07-07 14:59:00,76.8,55.0,29.75,NW,315,1.3,6.5,47,0.00,,,0.00,WUHU21623XXSP,2013-07-07 21:59:00,
2013-07-07 15:04:00,76.8,55.6,29.75,WNW,292,1.1,3.4,48,0.00,,,0.00,WUHU21623XXSP,2013-07-07 22:04:00,
2013-07-07 15:09:00,77.4,55.3,29.74,SW,225,1.8,3.4,47,0.00,,,0.00,WUHU21623XXSP,2013-07-07 22:09:00,
2013-07-07 15:14:00,77.4,55.5,29.75,WNW,292,2.2,3.8,47,0.00,,,0.00,WUHU21623XXSP,2013-07-07 22:14:00,
2013-07-07 15:19:00,77.5,55.7,29.75,WNW,292,2.0,3.8,47,0.00,,,0.00,WUHU21623XXSP,2013-07-07 22:19:00,
2013-07-07 15:24:00,77.5,55.7,29.75,SW,225,2.9,2.9,47,0.00,,,0.00,WUHU21623XXSP,2013-07-07 22:24:00,
2013-07-07 15:29:00,77.7,55.2,29.75,SW,225,3.6,3.6,46,0.00,,,0.00,WUHU21623XXSP,2013-07-07 22:29:00,
2013-07-07 15:34:00,77.7,55.2,29.74,West,270,0.7,3.6,46,0.00,,,0.00,WUHU21623XXSP,2013-07-07 22:34:00,
2013-07-07 15:39:00,77.7,55.1,29.74,SSW,202,0.7,5.6,46,0.00,,,0.00,WUHU21623XXSP,2013-07-07 22:39:00,
2013-07-07 15:44:00,77.7,55.2,29.74,SE,135,2.2,5.6,46,0.00,,,0.00,WUHU21623XXSP,2013-07-07 22:44:00,
2013-07-07 15:49:00,77.7,55.2,29.74,WNW,292,4.0,4.0,46,0.00,,,0.00,WUHU21623XXSP,2013-07-07 22:49:00,
2013-07-07 15:54:00,77.7,55.1,29.74,ESE,112,2.0,4.0,46,0.00,,,0.00,WUHU21623XXSP,2013-07-07 22:54:00,
2013-07-07 15:59:00,77.7,55.2,29.74,South,180,1.3,6.7,46,0.00,,,0.00,WUHU21623XXSP,2013-07-07 22:59:00,
2013-07-07 16:04:00,77.7,54.6,29.74,WNW,292,0.0,6.7,45,0.00,,,0.00,WUHU21623XXSP,2013-07-07 23:04:00,
2013-07-07 16:09:00,77.7,54.6,29.74,WSW,247,4.7,6.5,45,0.00,,,0.00,WUHU21623XXSP,2013-07-07 23:09:00,
2013-07-07 16:14:00,77.7,54.6,29.74,SW,225,4.5,6.5,45,0.00,,,0.00,WUHU21623XXSP,2013-07-07 23:14:00,
2013-07-07 16:19:00,77.9,54.8,29.73,SSW,202,0.0,4.5,45,0.00,,,0.00,WUHU21623XXSP,2013-07-07 23:19:00,
2013-07-07 16:24:00,78.3,55.1,29.74,SSW,202,3.6,6.7,45,0.00,,,0.00,WUHU21623XXSP,2013-07-07 23:24:00,
2013-07-07 16:29:00,78.4,55.3,29.74,West,270,3.4,6.7,45,0.00,,,0.00,WUHU21623XXSP,2013-07-07 23:29:00,
2013-07-07 16:34:00,78.6,55.4,29.74,West,270,5.4,5.4,45,0.00,,,0.00,WUHU21623XXSP,2013-07-07 23:34:00,
2013-07-07 16:39:00,79.0,55.1,29.73,West,270,5.4,5.4,44,0.00,,,0.00,WUHU21623XXSP,2013-07-07 23:39:00,
2013-07-07 16:44:00,79.2,55.3,29.74,WSW,247,6.7,6.7,44,0.00,,,0.00,WUHU21623XXSP,2013-07-07 23:44:00,
2013-07-07 16:49:00,79.3,55.5,29.74,NNW,337,5.4,6.7,44,0.00,,,0.00,WUHU21623XXSP,2013-07-07 23:49:00,
2013-07-07 16:54:00,79.7,55.2,29.74,WNW,292,3.6,5.8,43,0.00,,,0.00,WUHU21623XXSP,2013-07-07 23:54:00,
2013-07-07 16:59:00,79.9,55.3,29.73,NE,45,2.0,5.8,43,0.00,,,0.00,WUHU21623XXSP,2013-07-07 23:59:00,
2013-07-07 17:04:00,80.2,55.7,29.73,WNW,292,0.9,2.5,43,0.00,,,0.00,WUHU21623XXSP,2013-07-08 00:04:00,
2013-07-07 17:09:00,80.4,55.2,29.73,WSW,247,0.0,5.6,42,0.00,,,0.00,WUHU21623XXSP,2013-07-08 00:09:00,
2013-07-07 17:14:00,80.8,55.2,29.73,WSW,247,0.0,5.6,42,0.00,,,0.00,WUHU21623XXSP,2013-07-08 00:14:00,
2013-07-07 17:19:00,81.1,55.9,29.73,SSW,202,1.8,1.8,42,0.00,,,0.00,WUHU21623XXSP,2013-07-08 00:19:00,
2013-07-07 17:24:00,81.5,55.0,29.73,South,180,2.2,8.1,40,0.00,,,0.00,WUHU21623XXSP,2013-07-08 00:24:00,
2013-07-07 17:29:00,81.3,55.0,29.73,ESE,112,1.3,8.1,40,0.00,,,0.00,WUHU21623XXSP,2013-07-08 00:29:00,
2013-07-07 17:34:00,81.3,54.8,29.73,SW,225,5.4,5.4,40,0.00,,,0.00,WUHU21623XXSP,2013-07-08 00:34:00,
2013-07-07 17:39:00,81.5,55.0,29.73,SE,135,4.5,5.4,40,0.00,,,0.00,WUHU21623XXSP,2013-07-08 00:39:00,
2013-07-07 17:44:00,81.7,54.3,29.73,SSW,202,0.0,4.5,39,0.00,,,0.00,WUHU21623XXSP,2013-07-08 00:44:00,
2013-07-07 17:49:00,81.7,54.3,29.73,South,180,8.3,8.3,39,0.00,,,0.00,WUHU21623XXSP,2013-07-08 00:49:00,
2013-07-07 17:54:00,81.7,53.5,29.73,South,180,4.0,8.3,38,0.00,,,0.00,WUHU21623XXSP,2013-07-08 00:54:00,
2013-07-07 17:59:00,81.3,53.2,29.73,SE,135,4.0,8.3,38,0.00,,,0.00,WUHU21623XXSP,2013-07-08 00:59:00,
2013-07-07 18:04:00,80.8,53.1,29.73,North,0,0.0,4.0,38,0.00,,,0.00,WUHU21623XXSP,2013-07-08 01:04:00,
2013-07-07 18:09:00,80.1,52.9,29.73,ESE,112,2.5,3.1,39,0.00,,,0.00,WUHU21623XXSP,2013-07-08 01:09:00,
2013-07-07 18:14:00,79.9,52.7,29.74,South,180,3.1,3.1,38,0.00,,,0.00,WUHU21623XXSP,2013-07-08 01:14:00,
2013-07-07 18:19:00,79.0,51.5,29.74,SW,225,2.9,3.8,38,0.00,,,0.00,WUHU21623XXSP,2013-07-08 01:19:00,
2013-07-07 18:24:00,78.6,50.8,29.74,SE,135,0.0,3.8,38,0.00,,,0.00,WUHU21623XXSP,2013-07-08 01:24:00,
2013-07-07 18:29:00,78.3,50.5,29.74,West,270,0.0,0.0,38,0.00,,,0.00,WUHU21623XXSP,2013-07-08 01:29:00,
2013-07-07 18:34:00,78.1,51.1,29.74,SSW,202,0.0,0.0,39,0.00,,,0.00,WUHU21623XXSP,2013-07-08 01:34:00,
2013-07-07 18:39:00,77.9,51.1,29.74,South,180,0.9,3.6,39,0.00,,,0.00,WUHU21623XXSP,2013-07-08 01:39:00,
2013-07-07 18:44:00,77.7,50.8,29.74,SSW,202,3.4,3.4,39,0.00,,,0.00,WUHU21623XXSP,2013-07-08 01:44:00,
2013-07-07 18:49:00,77.7,50.8,29.74,SSW,202,3.4,3.4,39,0.00,,,0.00,WUHU21623XXSP,2013-07-08 01:49:00,
2013-07-07 18:54:00,77.4,50.5,29.75,South,180,3.4,4.3,39,0.00,,,0.00,WUHU21623XXSP,2013-07-08 01:54:00,
2013-07-07 18:59:00,76.8,50.0,29.75,SSW,202,1.3,4.3,39,0.00,,,0.00,WUHU21623XXSP,2013-07-08 01:59:00,
2013-07-07 19:04:00,76.1,49.3,29.74,South,180,0.7,4.3,39,0.00,,,0.00,WUHU21623XXSP,2013-07-08 02:04:00,
2013-07-07 19:09:00,75.7,49.0,29.74,SW,225,4.5,4.5,39,0.00,,,0.00,WUHU21623XXSP,2013-07-08 02:09:00,
2013-07-07 19:14:00,75.2,49.4,29.75,South,180,4.5,4.5,40,0.00,,,0.00,WUHU21623XXSP,2013-07-08 02:14:00,
2013-07-07 19:19:00,74.3,48.6,29.75,SSE,157,3.8,4.5,41,0.00,,,0.00,WUHU21623XXSP,2013-07-08 02:19:00,
2013-07-07 19:24:00,73.8,48.6,29.75,South,180,1.3,3.8,41,0.00,,,0.00,WUHU21623XXSP,2013-07-08 02:24:00,
2013-07-07 19:29:00,73.0,47.9,29.75,NW,315,0.0,3.1,41,0.00,,,0.00,WUHU21623XXSP,2013-07-08 02:29:00,
2013-07-07 19:34:00,72.1,47.7,29.75,SE,135,0.0,2.5,42,0.00,,,0.00,WUHU21623XXSP,2013-07-08 02:34:00,
2013-07-07 19:39:00,71.8,48.0,29.75,SE,135,0.0,2.5,43,0.00,,,0.00,WUHU21623XXSP,2013-07-08 02:39:00,
2013-07-07 19:44:00,71.2,48.1,29.75,SE,135,0.0,2.5,44,0.00,,,0.00,WUHU21623XXSP,2013-07-08 02:44:00,
2013-07-07 19:49:00,70.3,47.6,29.75,SW,225,0.9,2.5,44,0.00,,,0.00,WUHU21623XXSP,2013-07-08 02:49:00,
2013-07-07 19:54:00,69.8,47.7,29.76,East,90,2.5,2.5,45,0.00,,,0.00,WUHU21623XXSP,2013-07-08 02:54:00,
2013-07-07 19:59:00,69.3,47.5,29.75,South,180,0.0,3.1,46,0.00,,,0.00,WUHU21623XXSP,2013-07-08 02:59:00,
2013-07-07 20:04:00,68.5,48.0,29.76,South,180,1.1,3.1,48,0.00,,,0.00,WUHU21623XXSP,2013-07-08 03:04:00,
2013-07-07 20:10:00,67.8,48.0,29.76,WSW,247,2.2,3.4,49,0.00,,,0.00,WUHU21623XXSP,2013-07-08 03:10:00,
2013-07-07 20:15:00,67.3,48.1,29.76,SSW,202,0.9,3.4,50,0.00,,,0.00,WUHU21623XXSP,2013-07-08 03:15:00,
2013-07-07 20:20:00,66.4,48.3,29.76,South,180,0.0,2.2,52,0.00,,,0.00,WUHU21623XXSP,2013-07-08 03:20:00,
2013-07-07 20:25:00,65.8,48.2,29.77,South,180,3.1,3.1,53,0.00,,,0.00,WUHU21623XXSP,2013-07-08 03:25:00,
2013-07-07 20:30:00,65.1,48.0,29.76,West,270,0.9,3.1,54,0.00,,,0.00,WUHU21623XXSP,2013-07-08 03:30:00,
2013-07-07 20:35:00,64.6,48.9,29.77,West,270,3.4,3.4,57,0.00,,,0.00,WUHU21623XXSP,2013-07-08 03:35:00,
2013-07-07 20:40:00,64.2,48.6,29.76,SE,135,0.9,3.4,57,0.00,,,0.00,WUHU21623XXSP,2013-07-08 03:40:00,
2013-07-07 20:45:00,63.7,48.6,29.77,South,180,1.3,1.8,58,0.00,,,0.00,WUHU21623XXSP,2013-07-08 03:45:00,
2013-07-07 20:50:00,63.3,49.2,29.77,WNW,292,0.0,4.3,60,0.00,,,0.00,WUHU21623XXSP,2013-07-08 03:50:00,
2013-07-07 20:55:00,63.0,49.3,29.77,SE,135,1.6,4.3,61,0.00,,,0.00,WUHU21623XXSP,2013-07-08 03:55:00,
2013-07-07 21:00:00,62.4,49.2,29.78,SSE,157,2.5,2.5,62,0.00,,,0.00,WUHU21623XXSP,2013-07-08 04:00:00,
2013-07-07 21:05:00,62.2,49.9,29.78,WNW,292,0.0,2.5,64,0.00,,,0.00,WUHU21623XXSP,2013-07-08 04:05:00,
2013-07-07 21:10:00,62.1,49.7,29.78,South,180,0.0,3.1,64,0.00,,,0.00,WUHU21623XXSP,2013-07-08 04:10:00,
2013-07-07 21:15:00,61.9,50.4,29.78,South,180,0.0,3.1,66,0.00,,,0.00,WUHU21623XXSP,2013-07-08 04:15:00,
2013-07-07 21:20:00,61.7,50.2,29.79,West,270,0.7,1.1,66,0.00,,,0.00,WUHU21623XXSP,2013-07-08 04:20:00,
2013-07-07 21:25:00,61.5,50.5,29.79,West,270,1.1,1.1,67,0.00,,,0.00,WUHU21623XXSP,2013-07-08 04:25:00,
2013-07-07 21:30:00,61.3,50.3,29.79,South,180,3.1,3.1,67,0.00,,,0.00,WUHU21623XXSP,2013-07-08 04:30:00,
2013-07-07 21:35:00,61.3,51.2,29.79,SE,135,0.0,3.1,69,0.00,,,0.00,WUHU21623XXSP,2013-07-08 04:35:00,
2013-07-07 21:40:00,61.2,51.8,29.79,WNW,292,2.5,3.1,71,0.00,,,0.00,WUHU21623XXSP,2013-07-08 04:40:00,
2013-07-07 21:45:00,61.0,52.0,29.79,WNW,292,2.5,2.5,71,0.00,,,0.00,WUHU21623XXSP,2013-07-08 04:45:00,
2013-07-07 21:50:00,61.0,52.3,29.79,SSE,157,0.0,2.5,73,0.00,,,0.00,WUHU21623XXSP,2013-07-08 04:50:00,
2013-07-07 21:55:00,60.6,52.0,29.80,West,270,0.0,0.0,73,0.00,,,0.00,WUHU21623XXSP,2013-07-08 04:55:00,
2013-07-07 22:00:00,60.6,52.7,29.80,SW,225,0.0,1.8,75,0.00,,,0.00,WUHU21623XXSP,2013-07-08 05:00:00,
2013-07-07 22:05:00,60.4,52.5,29.80,WNW,292,0.9,1.8,76,0.00,,,0.00,WUHU21623XXSP,2013-07-08 05:05:00,
2013-07-07 22:10:00,60.4,52.9,29.80,SW,225,0.0,1.6,76,0.00,,,0.00,WUHU21623XXSP,2013-07-08 05:10:00,
2013-07-07 22:15:00,60.1,52.9,29.80,ENE,67,0.0,0.9,77,0.00,,,0.00,WUHU21623XXSP,2013-07-08 05:15:00,
2013-07-07 22:20:00,60.1,52.9,29.80,South,180,1.8,1.8,77,0.00,,,0.00,WUHU21623XXSP,2013-07-08 05:20:00,
2013-07-07 22:25:00,60.1,53.2,29.80,South,180,1.6,1.8,78,0.00,,,0.00,WUHU21623XXSP,2013-07-08 05:25:00,
2013-07-07 22:30:00,59.9,53.4,29.80,East,90,2.2,2.2,79,0.00,,,0.00,WUHU21623XXSP,2013-07-08 05:30:00,
2013-07-07 22:35:00,59.7,53.2,29.80,SSE,157,2.0,2.2,79,0.00,,,0.00,WUHU21623XXSP,2013-07-08 05:35:00,
2013-07-07 22:40:00,59.7,53.6,29.80,ESE,112,0.0,2.0,80,0.00,,,0.00,WUHU21623XXSP,2013-07-08 05:40:00,
2013-07-07 22:45:00,59.7,53.9,29.80,SE,135,0.0,0.9,81,0.00,,,0.00,WUHU21623XXSP,2013-07-08 05:45:00,
2013-07-07 22:50:00,59.5,54.1,29.80,SSE,157,3.1,3.1,82,0.00,,,0.00,WUHU21623XXSP,2013-07-08 05:50:00,
2013-07-07 22:55:00,59.4,54.1,29.81,ESE,112,3.8,3.8,84,0.00,,,0.00,WUHU21623XXSP,2013-07-08 05:55:00,
2013-07-07 23:00:00,59.4,54.5,29.80,SW,225,1.8,3.8,84,0.00,,,0.00,WUHU21623XXSP,2013-07-08 06:00:00,
2013-07-07 23:05:00,59.2,54.4,29.80,SE,135,0.0,3.6,84,0.00,,,0.00,WUHU21623XXSP,2013-07-08 06:05:00,
2013-07-07 23:10:00,59.2,54.0,29.80,SSE,157,0.0,3.6,83,0.00,,,0.00,WUHU21623XXSP,2013-07-08 06:10:00,
2013-07-07 23:15:00,59.4,54.5,29.80,SW,225,1.1,1.1,84,0.00,,,0.00,WUHU21623XXSP,2013-07-08 06:15:00,
2013-07-07 23:20:00,59.2,54.4,29.81,SSE,157,2.5,2.5,85,0.00,,,0.00,WUHU21623XXSP,2013-07-08 06:20:00,
2013-07-07 23:25:00,59.2,55.0,29.80,WSW,247,2.2,2.5,86,0.00,,,0.00,WUHU21623XXSP,2013-07-08 06:25:00,
2013-07-07 23:30:00,59.2,55.0,29.81,SSW,202,0.0,2.5,86,0.00,,,0.00,WUHU21623XXSP,2013-07-08 06:30:00,
2013-07-07 23:35:00,59.2,55.0,29.81,NNW,337,0.9,0.9,86,0.00,,,0.00,WUHU21623XXSP,2013-07-08 06:35:00,
2013-07-07 23:40:00,58.8,55.0,29.81,South,180,1.3,1.6,87,0.00,,,0.00,WUHU21623XXSP,2013-07-08 06:40:00,
2013-07-07 23:45:00,59.0,55.1,29.81,South,180,0.9,1.6,87,0.00,,,0.00,WUHU21623XXSP,2013-07-08 06:45:00,
2013-07-07 23:50:00,58.8,54.6,29.81,SE,135,0.0,0.9,86,0.00,,,0.00,WUHU21623XXSP,2013-07-08 06:50:00,
2013-07-07 23:55:00,58.8,55.3,29.81,West,270,0.0,0.0,88,0.00,,,0.00,WUHU21623XXSP,2013-07-08 06:55:00,